createdAt,value
2018-12-12T00:00:38.656Z,40.27
2018-12-12T00:03:07.114Z,38.23
2018-12-12T00:05:35.535Z,47.10
2018-12-12T00:08:04.162Z,43.97
2018-12-12T00:10:32.599Z,43.77
2018-12-12T00:13:01.123Z,48.07
2018-12-12T00:15:29.747Z,45.80
2018-12-12T00:17:58.628Z,43.67
2018-12-12T00:20:27.093Z,36.10
2018-12-12T00:22:55.525Z,41.70
2018-12-12T00:25:23.948Z,39.37
2018-12-12T00:27:52.416Z,43.40
2018-12-12T00:30:20.883Z,43.23
2018-12-12T00:32:49.382Z,44.57
2018-12-12T00:35:17.923Z,38.23
2018-12-12T00:37:46.384Z,42.63
2018-12-12T00:40:14.855Z,38.07
2018-12-12T00:42:43.315Z,44.20
2018-12-12T00:45:11.837Z,38.67
2018-12-12T00:47:40.366Z,40.90
2018-12-12T00:50:08.810Z,40.57
2018-12-12T00:52:37.225Z,46.73
2018-12-12T00:55:05.879Z,41.40
2018-12-12T00:57:34.587Z,44.47
2018-12-12T01:00:03.134Z,42.80
2018-12-12T01:02:31.562Z,45.97
2018-12-12T01:05:00.004Z,42.17
2018-12-12T01:07:28.544Z,46.60
2018-12-12T01:09:56.949Z,42.83
2018-12-12T01:12:25.475Z,47.77
2018-12-12T01:14:53.877Z,43.93
2018-12-12T01:17:22.283Z,47.43
2018-12-12T01:19:50.707Z,40.60
2018-12-12T01:22:19.124Z,37.57
2018-12-12T01:24:47.558Z,40.53
2018-12-12T01:27:15.988Z,42.87
2018-12-12T01:29:44.405Z,36.10
2018-12-12T01:32:12.935Z,36.83
2018-12-12T01:34:41.459Z,34.90
2018-12-12T01:37:10.146Z,34.63
2018-12-12T01:39:38.836Z,36.90
2018-12-12T01:42:07.242Z,34.17
2018-12-12T01:44:35.859Z,34.67
2018-12-12T01:47:04.298Z,36.80
2018-12-12T01:49:32.719Z,36.33
2018-12-12T01:52:01.140Z,36.17
2018-12-12T01:54:29.618Z,44.47
2018-12-12T01:56:58.077Z,32.57
2018-12-12T01:59:26.681Z,33.83
2018-12-12T02:01:55.207Z,37.70
2018-12-12T02:04:23.782Z,35.57
2018-12-12T02:06:52.426Z,33.07
2018-12-12T02:09:20.911Z,37.80
2018-12-12T02:11:49.319Z,33.47
2018-12-12T02:14:18.128Z,33.47
2018-12-12T02:16:46.674Z,29.53
2018-12-12T02:19:15.146Z,32.33
2018-12-12T02:21:43.623Z,33.00
2018-12-12T02:24:12.100Z,34.70
2018-12-12T02:26:40.581Z,36.37
2018-12-12T02:29:09.038Z,33.87
2018-12-12T02:31:37.520Z,34.80
2018-12-12T02:34:06.138Z,32.33
2018-12-12T02:36:34.663Z,36.40
2018-12-12T02:39:04.124Z,34.00
2018-12-12T02:41:32.522Z,32.63
2018-12-12T02:44:00.970Z,36.50
2018-12-12T02:46:29.424Z,31.77
2018-12-12T02:48:57.925Z,28.27
2018-12-12T02:51:26.347Z,33.23
2018-12-12T02:53:54.877Z,33.87
2018-12-12T02:56:23.358Z,30.03
2018-12-12T02:58:51.741Z,34.47
2018-12-12T03:01:20.244Z,33.27
2018-12-12T03:03:48.828Z,33.23
2018-12-12T03:06:17.374Z,28.83
2018-12-12T03:08:46.772Z,32.17
2018-12-12T03:11:19.595Z,27.57
2018-12-12T03:13:48.000Z,35.47
2018-12-12T03:16:16.642Z,30.10
2018-12-12T03:18:45.053Z,31.80
2018-12-12T03:21:13.967Z,32.20
2018-12-12T03:23:44.682Z,32.30
2018-12-12T03:26:13.480Z,33.37
2018-12-12T03:28:41.899Z,31.10
2018-12-12T03:31:10.360Z,31.40
2018-12-12T03:33:38.772Z,30.67
2018-12-12T03:36:07.197Z,31.23
2018-12-12T03:38:35.639Z,30.87
2018-12-12T03:41:04.280Z,35.30
2018-12-12T03:43:32.738Z,27.47
2018-12-12T03:46:01.247Z,36.53
2018-12-12T03:48:29.675Z,34.13
2018-12-12T03:50:58.089Z,33.43
2018-12-12T03:53:26.531Z,33.63
2018-12-12T03:55:55.128Z,33.10
2018-12-12T03:58:23.553Z,36.70
2018-12-12T04:00:51.944Z,32.10
2018-12-12T04:03:20.418Z,39.50
2018-12-12T04:05:48.999Z,43.30
2018-12-12T04:08:17.412Z,32.70
2018-12-12T04:10:45.808Z,32.63
2018-12-12T04:13:14.330Z,35.70
2018-12-12T04:15:42.983Z,37.43
2018-12-12T04:18:11.625Z,37.67
2018-12-12T04:20:40.022Z,36.77
2018-12-12T04:23:08.416Z,38.03
2018-12-12T04:25:36.818Z,44.73
2018-12-12T04:28:05.224Z,38.30
2018-12-12T04:30:33.659Z,44.03
2018-12-12T04:33:02.066Z,40.60
2018-12-12T04:35:30.499Z,43.67
2018-12-12T04:37:58.932Z,46.87
2018-12-12T04:40:27.478Z,42.93
2018-12-12T04:42:55.889Z,49.10
2018-12-12T04:45:24.358Z,45.23
2018-12-12T04:47:52.778Z,45.83
2018-12-12T04:50:21.233Z,49.97
2018-12-12T04:52:49.676Z,39.80
2018-12-12T04:55:18.103Z,43.13
2018-12-12T04:57:46.587Z,47.97
2018-12-12T05:00:15.101Z,45.23
2018-12-12T05:02:44.456Z,46.60
2018-12-12T05:05:12.871Z,45.07
2018-12-12T05:07:41.413Z,54.93
2018-12-12T05:10:09.947Z,41.40
2018-12-12T05:12:38.427Z,43.93
2018-12-12T05:15:07.075Z,47.87
2018-12-12T05:17:35.590Z,45.03
2018-12-12T05:20:04.307Z,46.87
2018-12-12T05:22:32.728Z,39.10
2018-12-12T05:25:01.147Z,43.93
2018-12-12T05:27:29.646Z,46.63
2018-12-12T05:29:58.133Z,46.93
2018-12-12T05:32:26.655Z,46.40
2018-12-12T05:34:55.161Z,41.23
2018-12-12T05:37:23.581Z,42.47
2018-12-12T05:39:58.464Z,46.50
2018-12-12T05:42:26.889Z,45.23
2018-12-12T05:44:55.315Z,43.67
2018-12-12T05:47:23.843Z,50.13
2018-12-12T05:49:52.363Z,48.97
2018-12-12T05:52:20.803Z,43.27
2018-12-12T05:54:49.219Z,49.13
2018-12-12T05:57:17.698Z,48.60
2018-12-12T05:59:46.242Z,45.30
2018-12-12T06:02:14.655Z,50.77
2018-12-12T06:04:43.117Z,48.37
2018-12-12T06:07:11.566Z,46.40
2018-12-12T06:09:39.987Z,46.20
2018-12-12T06:12:08.406Z,49.73
2018-12-12T06:14:36.801Z,47.93
2018-12-12T06:17:05.284Z,58.63
2018-12-12T06:19:33.783Z,47.93
2018-12-12T06:22:02.345Z,48.17
2018-12-12T06:24:30.749Z,57.20
2018-12-12T06:26:59.188Z,45.93
2018-12-12T06:29:27.694Z,58.03
2018-12-12T06:31:56.117Z,56.73
2018-12-12T06:34:24.528Z,46.77
2018-12-12T06:36:53.016Z,41.60
2018-12-12T06:39:21.530Z,58.70
2018-12-12T06:41:50.028Z,44.47
2018-12-12T06:44:18.515Z,51.40
2018-12-12T06:46:47.013Z,48.43
2018-12-12T06:49:15.421Z,51.83
2018-12-12T06:51:43.897Z,50.70
2018-12-12T06:54:12.878Z,52.03
2018-12-12T06:56:41.262Z,54.27
2018-12-12T06:59:09.683Z,54.10
2018-12-12T07:01:38.440Z,57.37
2018-12-12T07:04:07.000Z,54.70
2018-12-12T07:06:35.431Z,56.27
2018-12-12T07:09:07.534Z,53.40
2018-12-12T07:11:36.041Z,59.50
2018-12-12T07:14:05.067Z,52.80
2018-12-12T07:16:33.563Z,58.43
2018-12-12T07:19:02.068Z,57.00
2018-12-12T07:21:30.598Z,59.10
2018-12-12T07:23:59.000Z,64.07
2018-12-12T07:26:27.645Z,54.53
2018-12-12T07:28:56.068Z,54.50
2018-12-12T07:31:24.482Z,60.63
2018-12-12T07:33:52.919Z,62.30
2018-12-12T07:36:21.364Z,56.00
2018-12-12T07:38:49.912Z,50.67
2018-12-12T07:41:18.318Z,46.37
2018-12-12T07:43:46.750Z,52.53
2018-12-12T07:46:15.151Z,62.47
2018-12-12T07:48:43.578Z,53.03
2018-12-12T07:51:12.151Z,65.87
2018-12-12T07:53:40.633Z,64.83
2018-12-12T07:56:09.180Z,71.60
2018-12-12T07:58:37.585Z,74.90
2018-12-12T08:01:06.188Z,65.53
2018-12-12T08:03:34.587Z,76.13
2018-12-12T08:06:03.145Z,64.57
2018-12-12T08:08:31.660Z,76.17
2018-12-12T08:11:00.099Z,68.43
2018-12-12T08:13:28.508Z,67.63
2018-12-12T08:15:57.402Z,67.07
2018-12-12T08:18:25.846Z,67.00
2018-12-12T08:20:54.250Z,62.90
2018-12-12T08:23:23.071Z,67.40
2018-12-12T08:25:51.693Z,63.00
2018-12-12T08:28:20.126Z,63.80
2018-12-12T08:30:48.524Z,70.07
2018-12-12T08:33:16.927Z,75.03
2018-12-12T08:35:45.319Z,76.43
2018-12-12T08:38:13.735Z,79.17
2018-12-12T08:40:42.228Z,77.73
2018-12-12T08:43:10.761Z,77.33
2018-12-12T08:45:39.167Z,79.03
2018-12-12T08:48:07.672Z,74.10
2018-12-12T08:50:36.168Z,77.20
2018-12-12T08:53:04.588Z,72.10
2018-12-12T08:55:32.998Z,92.87
2018-12-12T08:58:01.433Z,73.47
2018-12-12T09:00:29.854Z,97.20
2018-12-12T09:02:58.341Z,92.63
2018-12-12T09:05:26.794Z,89.77
2018-12-12T09:07:55.604Z,73.80
2018-12-12T09:10:24.086Z,67.83
2018-12-12T09:12:52.490Z,70.37
2018-12-12T09:15:20.904Z,68.03
2018-12-12T09:17:49.411Z,59.87
2018-12-12T09:20:18.211Z,64.10
2018-12-12T09:22:46.675Z,69.17
2018-12-12T09:25:15.078Z,61.50
2018-12-12T09:27:43.493Z,78.77
2018-12-12T09:30:12.051Z,68.90
2018-12-12T09:32:40.731Z,89.23
2018-12-12T09:35:09.289Z,68.37
2018-12-12T09:37:37.693Z,67.43
2018-12-12T09:40:06.451Z,78.87
2018-12-12T09:42:34.933Z,78.37
2018-12-12T09:45:04.902Z,67.43
2018-12-12T09:47:33.939Z,68.67
2018-12-12T09:50:02.357Z,61.73
2018-12-12T09:52:30.745Z,60.67
2018-12-12T09:54:59.270Z,68.20
2018-12-12T09:57:27.659Z,61.23
2018-12-12T09:59:56.143Z,68.37
2018-12-12T10:02:24.680Z,68.73
2018-12-12T10:04:53.100Z,61.63
2018-12-12T10:07:21.782Z,64.33
2018-12-12T10:09:50.647Z,68.03
2018-12-12T10:12:19.072Z,71.93
2018-12-12T10:14:47.488Z,65.00
2018-12-12T10:17:15.998Z,77.33
2018-12-12T10:19:44.416Z,73.07
2018-12-12T10:22:12.933Z,69.40
2018-12-12T10:24:41.546Z,69.83
2018-12-12T10:27:09.989Z,72.40
2018-12-12T10:29:38.471Z,70.20
2018-12-12T10:32:06.918Z,68.27
2018-12-12T10:34:35.330Z,63.80
2018-12-12T10:37:03.849Z,57.67
2018-12-12T10:39:32.329Z,66.83
2018-12-12T10:42:00.962Z,56.57
2018-12-12T10:44:29.630Z,50.83
2018-12-12T10:46:58.293Z,42.27
2018-12-12T10:49:27.044Z,43.83
2018-12-12T10:51:55.535Z,38.43
2018-12-12T10:54:24.072Z,41.10
2018-12-12T10:56:52.787Z,42.07
2018-12-12T10:59:21.327Z,47.53
2018-12-12T11:01:51.832Z,37.07
2018-12-12T11:04:20.501Z,38.97
2018-12-12T11:06:48.960Z,33.63
2018-12-12T11:09:17.513Z,42.60
2018-12-12T11:11:46.101Z,34.13
2018-12-12T11:14:14.611Z,35.67
2018-12-12T11:16:43.564Z,29.90
2018-12-12T11:19:11.985Z,30.83
2018-12-12T11:21:40.495Z,29.50
2018-12-12T11:24:08.944Z,30.67
2018-12-12T11:26:37.565Z,26.07
2018-12-12T11:29:06.037Z,28.20
2018-12-12T11:31:34.433Z,31.17
2018-12-12T11:34:02.891Z,31.27
2018-12-12T11:36:32.688Z,28.43
2018-12-12T11:39:01.287Z,28.00
2018-12-12T11:41:30.079Z,27.40
2018-12-12T11:43:58.644Z,34.80
2018-12-12T11:46:27.168Z,29.90
2018-12-12T11:48:55.617Z,35.97
2018-12-12T11:51:24.122Z,32.93
2018-12-12T11:53:52.551Z,34.47
2018-12-12T11:56:21.021Z,31.10
2018-12-12T11:58:49.540Z,24.83
2018-12-12T12:01:17.987Z,28.97
2018-12-12T12:03:46.402Z,24.97
2018-12-12T12:06:14.849Z,25.77
2018-12-12T12:08:43.373Z,26.37
2018-12-12T12:11:11.782Z,26.03
2018-12-12T12:13:40.210Z,25.50
2018-12-12T12:16:08.737Z,26.67
2018-12-12T12:18:37.252Z,25.43
2018-12-12T12:21:05.731Z,25.47
2018-12-12T12:23:34.190Z,23.00
2018-12-12T12:26:02.591Z,27.60
2018-12-12T12:28:31.012Z,22.50
2018-12-12T12:30:59.474Z,18.13
2018-12-12T12:33:27.970Z,24.07
2018-12-12T12:35:56.406Z,23.43
2018-12-12T12:38:25.245Z,21.07
2018-12-12T12:40:53.749Z,20.33
2018-12-12T12:43:22.510Z,18.87
2018-12-12T12:45:51.107Z,21.27
2018-12-12T12:48:19.616Z,24.93
2018-12-12T12:50:48.140Z,18.97
2018-12-12T12:53:16.639Z,20.47
2018-12-12T12:55:45.068Z,21.03
2018-12-12T12:58:13.592Z,22.33
2018-12-12T13:00:42.076Z,24.00
2018-12-12T13:03:10.498Z,18.07
2018-12-12T13:05:38.993Z,18.33
2018-12-12T13:08:07.407Z,15.70
2018-12-12T13:10:36.034Z,17.97
2018-12-12T13:13:05.068Z,23.47
2018-12-12T13:15:34.825Z,17.40
2018-12-12T13:18:03.567Z,18.53
2018-12-12T13:20:32.128Z,17.47
2018-12-12T13:23:00.525Z,20.10
2018-12-12T13:25:28.942Z,15.90
2018-12-12T13:27:57.337Z,17.67
2018-12-12T13:30:25.746Z,16.27
2018-12-12T13:32:54.195Z,18.80
2018-12-12T13:35:22.722Z,18.43
2018-12-12T13:37:51.148Z,16.70
2018-12-12T13:40:19.564Z,21.67
2018-12-12T13:42:47.986Z,20.53
2018-12-12T13:45:16.452Z,19.20
2018-12-12T13:47:44.863Z,23.47
2018-12-12T13:50:13.438Z,18.60
2018-12-12T13:52:41.855Z,25.07
2018-12-12T13:55:10.280Z,28.60
2018-12-12T13:57:38.707Z,30.90
2018-12-12T14:00:07.345Z,41.07
2018-12-12T14:02:35.746Z,35.13
2018-12-12T14:05:04.666Z,26.67
2018-12-12T14:07:33.100Z,31.03
2018-12-12T14:10:01.527Z,28.00
2018-12-12T14:12:30.036Z,29.50
2018-12-12T14:14:58.435Z,30.87
2018-12-12T14:17:26.855Z,28.73
2018-12-12T14:19:55.407Z,29.07
2018-12-12T14:22:23.864Z,35.13
2018-12-12T14:24:52.357Z,32.53
2018-12-12T14:27:20.936Z,28.10
2018-12-12T14:30:56.804Z,35.43
2018-12-12T14:33:25.304Z,34.57
2018-12-12T14:35:53.719Z,30.10
2018-12-12T14:38:22.126Z,28.60
2018-12-12T14:40:50.650Z,38.90
2018-12-12T14:43:19.062Z,35.10
2018-12-12T14:45:47.615Z,34.47
2018-12-12T14:48:16.002Z,29.77
2018-12-12T14:50:44.408Z,34.33
2018-12-12T14:53:12.867Z,37.57
2018-12-12T14:55:41.387Z,33.37
2018-12-12T14:58:09.881Z,35.87
2018-12-12T15:00:38.310Z,43.00
2018-12-12T15:03:06.750Z,33.77
2018-12-12T15:05:35.202Z,33.87
2018-12-12T15:08:03.658Z,32.33
2018-12-12T15:10:32.173Z,31.33
2018-12-12T15:13:00.711Z,40.03
2018-12-12T15:15:29.263Z,35.43
2018-12-12T15:17:57.676Z,34.63
2018-12-12T15:20:26.096Z,43.40
2018-12-12T15:22:54.575Z,43.73
2018-12-12T15:25:22.971Z,36.00
2018-12-12T15:27:51.371Z,35.30
2018-12-12T15:30:19.985Z,42.83
2018-12-12T15:32:48.500Z,30.20
2018-12-12T15:35:16.931Z,39.07
2018-12-12T15:37:45.556Z,46.50
2018-12-12T15:40:14.102Z,52.73
2018-12-12T15:42:42.796Z,44.50
2018-12-12T15:45:11.265Z,57.27
2018-12-12T15:47:39.671Z,44.90
2018-12-12T15:50:08.091Z,46.23
2018-12-12T15:52:36.569Z,49.50
2018-12-12T15:55:05.302Z,50.63
2018-12-12T15:57:33.733Z,54.43
2018-12-12T16:00:02.229Z,50.17
2018-12-12T16:02:30.791Z,52.03
2018-12-12T16:04:59.202Z,48.53
2018-12-12T16:07:28.050Z,53.13
2018-12-12T16:09:56.705Z,46.70
2018-12-12T16:12:25.104Z,40.03
2018-12-12T16:14:53.524Z,38.73
2018-12-12T16:17:21.940Z,41.50
2018-12-12T16:19:50.363Z,35.53
2018-12-12T16:22:18.797Z,39.27
2018-12-12T16:24:47.229Z,43.30
2018-12-12T16:27:15.652Z,45.67
2018-12-12T16:29:44.078Z,35.63
2018-12-12T16:32:12.513Z,43.60
2018-12-12T16:34:40.925Z,38.50
2018-12-12T16:37:09.374Z,43.97
2018-12-12T16:39:37.940Z,38.47
2018-12-12T16:42:06.354Z,35.13
2018-12-12T16:44:34.757Z,38.40
2018-12-12T16:47:03.229Z,41.90
2018-12-12T16:49:31.653Z,44.43
2018-12-12T16:52:00.600Z,34.07
2018-12-12T16:54:29.045Z,36.83
2018-12-12T16:56:57.426Z,38.43
2018-12-12T16:59:25.830Z,50.07
2018-12-12T17:01:54.343Z,41.47
2018-12-12T17:04:22.744Z,47.43
2018-12-12T17:06:51.171Z,77.93
2018-12-12T17:09:19.581Z,57.27
2018-12-12T17:12:14.610Z,44.70
2018-12-12T17:14:43.161Z,46.97
2018-12-12T17:17:11.803Z,42.60
2018-12-12T17:19:40.228Z,48.10
2018-12-12T17:22:08.635Z,54.33
2018-12-12T17:24:37.100Z,42.67
2018-12-12T17:27:05.579Z,43.90
2018-12-12T17:29:33.984Z,41.77
2018-12-12T17:32:02.405Z,39.20
2018-12-12T17:34:30.854Z,47.03
2018-12-12T17:36:59.423Z,42.60
2018-12-12T17:39:27.854Z,45.93
2018-12-12T17:41:56.244Z,46.57
2018-12-12T17:44:24.668Z,36.30
2018-12-12T17:46:53.118Z,41.70
2018-12-12T17:49:21.536Z,42.13
2018-12-12T17:51:49.940Z,42.17
2018-12-12T17:54:18.427Z,50.47
2018-12-12T17:56:46.886Z,43.40
2018-12-12T17:59:15.332Z,41.80
2018-12-12T18:01:43.884Z,46.40
2018-12-12T18:04:12.324Z,56.40
2018-12-12T18:06:40.805Z,55.17
2018-12-12T18:09:09.255Z,50.47
2018-12-12T18:11:37.752Z,49.70
2018-12-12T18:14:06.290Z,53.27
2018-12-12T18:16:34.730Z,62.70
2018-12-12T18:19:03.233Z,50.97
2018-12-12T18:21:31.798Z,55.60
2018-12-12T18:24:00.218Z,66.40
2018-12-12T18:26:28.626Z,50.03
2018-12-12T18:28:57.033Z,59.20
2018-12-12T18:31:25.467Z,59.03
2018-12-12T18:33:54.474Z,64.33
2018-12-12T18:36:22.928Z,64.40
2018-12-12T18:38:51.399Z,65.87
2018-12-12T18:41:19.922Z,75.47
2018-12-12T18:43:48.354Z,72.70
2018-12-12T18:46:16.785Z,77.43
2018-12-12T18:48:45.220Z,80.80
2018-12-12T18:51:13.724Z,100.80
2018-12-12T18:53:42.159Z,97.70
2018-12-12T18:56:10.579Z,89.73
2018-12-12T18:58:38.997Z,89.60
2018-12-12T19:01:07.445Z,84.80
2018-12-12T19:03:35.878Z,96.40
2018-12-12T19:06:04.845Z,100.20
2018-12-12T19:08:33.275Z,96.60
2018-12-12T19:11:01.681Z,92.90
2018-12-12T19:13:30.222Z,102.57
2018-12-12T19:15:58.640Z,96.87
2018-12-12T19:18:27.089Z,81.40
2018-12-12T19:21:00.004Z,93.30
2018-12-12T19:23:26.076Z,85.43
2018-12-12T19:25:54.523Z,95.50
2018-12-12T19:28:22.931Z,92.40
2018-12-12T19:30:51.340Z,84.40
2018-12-12T19:33:19.732Z,86.73
2018-12-12T19:35:48.205Z,89.63
2018-12-12T19:38:16.714Z,82.13
2018-12-12T19:40:45.291Z,86.30
2018-12-12T19:43:13.764Z,80.73
2018-12-12T19:45:42.216Z,92.37
2018-12-12T19:48:10.632Z,88.23
2018-12-12T19:50:39.075Z,94.33
2018-12-12T19:53:07.475Z,83.67
2018-12-12T19:55:35.913Z,87.67
2018-12-12T19:58:04.660Z,88.97
2018-12-12T20:00:33.085Z,88.70
2018-12-12T20:03:01.496Z,98.00
2018-12-12T20:05:29.969Z,93.13
2018-12-12T20:07:58.438Z,82.83
2018-12-12T20:10:26.850Z,86.30
2018-12-12T20:12:55.354Z,95.57
2018-12-12T20:15:29.244Z,87.57
2018-12-12T20:17:57.770Z,88.97
2018-12-12T20:20:26.217Z,83.70
2018-12-12T20:22:54.619Z,86.67
2018-12-12T20:25:23.039Z,81.40
2018-12-12T20:27:51.461Z,82.67
2018-12-12T20:30:19.892Z,90.30
2018-12-12T20:32:48.321Z,85.30
2018-12-12T20:35:16.777Z,82.77
2018-12-12T20:37:45.421Z,89.93
2018-12-12T20:40:13.967Z,94.80
2018-12-12T20:42:42.391Z,85.57
2018-12-12T20:45:10.840Z,89.57
2018-12-12T20:47:39.252Z,97.50
2018-12-12T20:50:08.359Z,85.03
2018-12-12T20:52:36.781Z,97.83
2018-12-12T20:55:05.421Z,96.70
2018-12-12T20:57:33.821Z,85.67
2018-12-12T21:00:02.236Z,90.37
2018-12-12T21:02:30.714Z,87.63
2018-12-12T21:04:59.220Z,96.67
2018-12-12T21:07:27.710Z,97.83
2018-12-12T21:09:56.112Z,89.67
2018-12-12T21:12:24.669Z,92.80
2018-12-12T21:14:53.156Z,101.07
2018-12-12T21:17:21.571Z,88.67
2018-12-12T21:19:50.012Z,93.13
2018-12-12T21:22:18.422Z,102.53
2018-12-12T21:24:46.835Z,99.10
2018-12-12T21:27:15.263Z,102.97
2018-12-12T21:29:43.661Z,94.73
2018-12-12T21:32:12.069Z,92.37
2018-12-12T21:34:40.492Z,100.43
2018-12-12T21:37:08.898Z,92.33
2018-12-12T21:39:37.311Z,89.33
2018-12-12T21:42:05.754Z,100.70
2018-12-12T21:44:34.187Z,95.20
2018-12-12T21:47:02.604Z,93.77
2018-12-12T21:49:31.030Z,99.73
2018-12-12T21:51:59.447Z,97.63
2018-12-12T21:54:27.849Z,101.60
2018-12-12T21:56:56.284Z,102.77
2018-12-12T21:59:24.711Z,91.37
2018-12-12T22:01:53.098Z,95.13
2018-12-12T22:04:21.649Z,96.13
2018-12-12T22:06:50.057Z,99.97
2018-12-12T22:09:18.501Z,102.90
2018-12-12T22:11:46.894Z,98.07
2018-12-12T22:14:15.295Z,95.00
2018-12-12T22:16:43.683Z,91.93
2018-12-12T22:19:12.169Z,85.50
2018-12-12T22:21:40.574Z,79.60
2018-12-12T22:24:09.004Z,89.90
2018-12-12T22:26:37.528Z,98.90
2018-12-12T22:29:05.937Z,91.20
2018-12-12T22:31:34.331Z,93.17
2018-12-12T22:34:02.724Z,82.60
2018-12-12T22:36:31.224Z,87.97
2018-12-12T22:38:59.621Z,85.73
2018-12-12T22:41:28.597Z,87.23
2018-12-12T22:43:57.013Z,86.37
2018-12-12T22:46:25.439Z,90.07
2018-12-12T22:48:53.785Z,84.60
2018-12-12T22:51:22.206Z,89.13
2018-12-12T22:53:50.619Z,89.30
2018-12-12T22:56:19.019Z,85.77
2018-12-12T22:58:47.500Z,76.70
2018-12-12T23:01:21.470Z,83.17
2018-12-12T23:03:49.867Z,76.80
2018-12-12T23:06:20.521Z,83.10
2018-12-12T23:08:48.728Z,79.63
2018-12-12T23:11:17.213Z,81.70
2018-12-12T23:13:45.616Z,73.30
2018-12-12T23:16:14.046Z,77.23
2018-12-12T23:18:42.522Z,77.80
2018-12-12T23:21:11.088Z,86.07
2018-12-12T23:23:39.506Z,82.97
2018-12-12T23:26:07.919Z,70.03
2018-12-12T23:28:36.319Z,75.80
2018-12-12T23:31:04.711Z,76.27
2018-12-12T23:33:33.110Z,74.40
2018-12-12T23:36:01.520Z,70.17
2018-12-12T23:38:29.958Z,72.00
2018-12-12T23:40:58.360Z,70.37
2018-12-12T23:43:26.748Z,72.17
2018-12-12T23:45:55.149Z,74.33
2018-12-12T23:48:23.543Z,75.33
2018-12-12T23:50:51.934Z,74.57
2018-12-12T23:53:20.445Z,71.30
2018-12-12T23:55:48.843Z,74.47
2018-12-12T23:58:17.363Z,66.23
